createdAt,value
2018-11-05T00:00:38.919Z,16.53
2018-11-05T00:03:15.150Z,17.30
2018-11-05T00:05:43.475Z,18.10
2018-11-05T00:08:11.545Z,17.07
2018-11-05T00:10:39.889Z,17.63
2018-11-05T00:13:08.120Z,16.70
2018-11-05T00:15:36.794Z,16.17
2018-11-05T00:18:05.486Z,18.70
2018-11-05T00:20:34.277Z,17.60
2018-11-05T00:23:02.422Z,16.90
2018-11-05T00:25:30.508Z,18.20
2018-11-05T00:27:59.077Z,17.70
2018-11-05T00:30:27.275Z,16.47
2018-11-05T00:32:55.445Z,17.37
2018-11-05T00:35:23.784Z,18.57
2018-11-05T00:37:51.981Z,18.63
2018-11-05T00:40:20.351Z,16.83
2018-11-05T00:42:48.350Z,17.10
2018-11-05T00:45:16.469Z,18.17
2018-11-05T00:47:44.964Z,14.87
2018-11-05T00:50:14.181Z,17.93
2018-11-05T00:52:42.542Z,15.97
2018-11-05T00:55:11.593Z,17.43
2018-11-05T00:57:39.886Z,16.97
2018-11-05T01:00:11.144Z,18.07
2018-11-05T01:02:39.951Z,16.20
2018-11-05T01:05:10.195Z,16.27
2018-11-05T01:07:38.934Z,16.27
2018-11-05T01:10:07.717Z,17.27
2018-11-05T01:12:36.384Z,16.90
2018-11-05T01:15:05.438Z,17.77
2018-11-05T01:17:33.789Z,18.37
2018-11-05T01:20:01.990Z,16.77
2018-11-05T01:22:30.176Z,16.10
2018-11-05T01:24:58.332Z,16.83
2018-11-05T01:27:26.629Z,16.57
2018-11-05T01:29:54.743Z,18.90
2018-11-05T01:32:22.815Z,16.33
2018-11-05T01:34:50.885Z,16.93
2018-11-05T01:37:19.117Z,16.13
2018-11-05T01:39:46.984Z,18.87
2018-11-05T01:42:15.486Z,18.50
2018-11-05T01:44:43.644Z,16.70
2018-11-05T01:47:11.814Z,17.77
2018-11-05T01:49:39.932Z,18.13
2018-11-05T01:52:09.091Z,19.20
2018-11-05T01:54:37.646Z,18.67
2018-11-05T01:57:05.983Z,20.50
2018-11-05T01:59:34.214Z,18.17
2018-11-05T02:02:02.517Z,18.60
2018-11-05T02:04:30.564Z,19.37
2018-11-05T02:06:58.683Z,17.90
2018-11-05T02:09:26.893Z,18.57
2018-11-05T02:11:54.898Z,18.40
2018-11-05T02:14:22.998Z,18.30
2018-11-05T02:16:51.216Z,17.10
2018-11-05T02:19:19.351Z,19.80
2018-11-05T02:21:47.396Z,18.60
2018-11-05T02:24:15.461Z,19.70
2018-11-05T02:26:44.866Z,19.23
2018-11-05T02:29:12.981Z,21.37
2018-11-05T02:31:41.210Z,20.60
2018-11-05T02:34:09.246Z,20.20
2018-11-05T02:36:37.456Z,23.50
2018-11-05T02:39:06.709Z,19.00
2018-11-05T02:41:34.955Z,21.93
2018-11-05T02:44:05.679Z,20.27
2018-11-05T02:46:33.874Z,20.50
2018-11-05T02:49:02.090Z,20.40
2018-11-05T02:51:30.437Z,19.30
2018-11-05T02:53:58.671Z,19.00
2018-11-05T02:56:26.737Z,21.83
2018-11-05T02:58:54.774Z,21.17
2018-11-05T03:01:23.003Z,18.90
2018-11-05T03:03:51.234Z,19.30
2018-11-05T03:06:20.363Z,18.50
2018-11-05T03:08:48.427Z,19.33
2018-11-05T03:11:16.555Z,19.23
2018-11-05T03:13:44.628Z,19.00
2018-11-05T03:16:12.761Z,20.77
2018-11-05T03:18:41.111Z,19.23
2018-11-05T03:21:09.279Z,19.70
2018-11-05T03:23:37.469Z,21.13
2018-11-05T03:26:05.936Z,20.80
2018-11-05T03:28:34.260Z,19.33
2018-11-05T03:31:02.446Z,20.20
2018-11-05T03:33:30.654Z,22.70
2018-11-05T03:35:58.865Z,21.90
2018-11-05T03:38:27.017Z,21.00
2018-11-05T03:41:00.199Z,19.30
2018-11-05T03:43:28.614Z,18.77
2018-11-05T03:45:56.862Z,20.63
2018-11-05T03:48:24.979Z,18.43
2018-11-05T03:50:53.137Z,19.70
2018-11-05T03:53:21.261Z,19.80
2018-11-05T03:55:49.363Z,19.67
2018-11-05T03:58:17.525Z,18.47
2018-11-05T04:00:45.574Z,16.50
2018-11-05T04:03:13.772Z,21.43
2018-11-05T04:05:41.947Z,20.50
2018-11-05T04:08:10.142Z,19.03
2018-11-05T04:10:38.512Z,21.13
2018-11-05T04:13:06.655Z,20.47
2018-11-05T04:15:35.195Z,20.27
2018-11-05T04:18:03.310Z,24.83
2018-11-05T04:20:31.464Z,24.03
2018-11-05T04:22:59.728Z,20.20
2018-11-05T04:25:27.863Z,18.93
2018-11-05T04:27:58.078Z,21.07
2018-11-05T04:30:26.273Z,18.87
2018-11-05T04:32:54.314Z,22.70
2018-11-05T04:35:22.611Z,22.43
2018-11-05T04:37:50.801Z,21.90
2018-11-05T04:40:19.102Z,20.40
2018-11-05T04:42:47.308Z,19.90
2018-11-05T04:45:15.425Z,19.90
2018-11-05T04:47:43.937Z,17.40
2018-11-05T04:50:13.878Z,18.40
2018-11-05T04:52:42.779Z,18.83
2018-11-05T04:55:11.174Z,18.43
2018-11-05T04:57:39.328Z,17.70
2018-11-05T05:00:09.702Z,17.87
2018-11-05T05:02:39.157Z,18.33
2018-11-05T05:05:07.552Z,18.93
2018-11-05T05:07:35.733Z,18.00
2018-11-05T05:10:04.186Z,16.87
2018-11-05T05:12:32.537Z,18.70
2018-11-05T05:15:00.856Z,24.60
2018-11-05T05:17:29.564Z,19.07
2018-11-05T05:19:57.853Z,16.60
2018-11-05T05:22:26.757Z,14.80
2018-11-05T05:24:54.970Z,15.53
2018-11-05T05:27:23.117Z,12.30
2018-11-05T05:29:51.337Z,13.70
2018-11-05T05:32:19.534Z,14.37
2018-11-05T05:34:47.790Z,13.60
2018-11-05T05:37:16.347Z,12.20
2018-11-05T05:39:44.690Z,13.93
2018-11-05T05:42:13.032Z,13.13
2018-11-05T05:44:41.450Z,13.20
2018-11-05T05:47:09.762Z,14.53
2018-11-05T05:49:37.919Z,13.37
2018-11-05T05:52:06.232Z,14.17
2018-11-05T05:54:34.978Z,11.90
2018-11-05T05:57:03.556Z,13.57
2018-11-05T05:59:32.418Z,11.20
2018-11-05T06:02:04.233Z,13.93
2018-11-05T06:04:32.655Z,13.77
2018-11-05T06:07:00.975Z,13.60
2018-11-05T06:09:29.266Z,12.30
2018-11-05T06:11:57.761Z,13.10
2018-11-05T06:14:26.041Z,13.80
2018-11-05T06:17:06.231Z,13.23
2018-11-05T06:19:34.639Z,12.43
2018-11-05T06:22:03.071Z,16.77
2018-11-05T06:24:31.287Z,12.93
2018-11-05T06:27:01.575Z,12.20
2018-11-05T06:29:30.479Z,11.47
2018-11-05T06:31:59.067Z,9.50
2018-11-05T06:34:27.724Z,11.33
2018-11-05T06:36:56.131Z,9.53
2018-11-05T06:42:01.479Z,10.10
2018-11-05T06:44:29.714Z,10.10
2018-11-05T06:46:57.979Z,10.07
2018-11-05T06:49:35.766Z,8.97
2018-11-05T06:52:04.966Z,10.80
2018-11-05T06:54:33.459Z,11.50
2018-11-05T06:57:03.081Z,10.00
2018-11-05T06:59:32.354Z,10.63
2018-11-05T07:02:00.898Z,11.60
2018-11-05T07:04:36.251Z,12.60
2018-11-05T07:12:38.160Z,15.50
2018-11-05T07:20:35.289Z,15.90
2018-11-05T07:25:53.489Z,17.53
2018-11-05T07:31:14.394Z,16.90
2018-11-05T07:39:37.795Z,18.00
2018-11-05T07:42:07.385Z,16.60
2018-11-05T07:44:41.506Z,17.97
2018-11-05T07:47:11.289Z,19.80
2018-11-05T07:52:25.060Z,18.13
2018-11-05T08:00:33.724Z,22.80
2018-11-05T08:03:02.603Z,21.50
2018-11-05T08:08:21.144Z,18.50
2018-11-05T08:10:58.709Z,21.57
2018-11-05T08:13:27.505Z,22.43
2018-11-05T08:21:38.327Z,19.37
2018-11-05T08:24:13.278Z,19.63
2018-11-05T08:29:24.007Z,18.10
2018-11-05T08:31:53.487Z,18.87
2018-11-05T08:39:56.355Z,18.60
2018-11-05T08:42:39.636Z,19.03
2018-11-05T08:48:02.833Z,19.23
2018-11-05T08:50:36.292Z,19.07
2018-11-05T08:58:41.861Z,20.40
2018-11-05T09:07:43.150Z,19.03
2018-11-05T09:13:02.616Z,16.30
2018-11-05T09:15:35.518Z,14.23
2018-11-05T09:26:57.049Z,14.40
2018-11-05T09:32:36.391Z,13.93
2018-11-05T09:40:35.189Z,11.80
2018-11-05T09:52:05.302Z,9.80
2018-11-05T09:54:44.149Z,11.10
2018-11-05T10:08:32.092Z,11.67
2018-11-05T10:19:21.075Z,9.67
2018-11-05T10:27:32.307Z,8.50
2018-11-05T10:35:39.382Z,8.20
2018-11-05T10:52:54.936Z,8.13
2018-11-05T11:21:18.671Z,10.77
2018-11-05T11:35:10.687Z,9.30
2018-11-05T11:43:24.440Z,9.83
2018-11-05T11:46:01.772Z,8.60
2018-11-05T13:23:08.345Z,8.87
2018-11-05T13:25:38.024Z,9.13
2018-11-05T14:02:06.834Z,13.97
2018-11-05T14:04:40.470Z,13.20
2018-11-05T14:12:55.920Z,12.73
2018-11-05T14:30:30.471Z,12.90
2018-11-05T14:33:03.254Z,12.73
2018-11-05T14:40:55.650Z,12.67
2018-11-05T14:57:14.577Z,11.57
2018-11-05T15:16:40.452Z,14.07
2018-11-05T15:36:41.593Z,16.73
2018-11-05T16:44:17.247Z,17.10
2018-11-05T17:10:36.198Z,12.90
2018-11-05T17:48:06.244Z,16.70
2018-11-05T18:13:59.272Z,14.63
2018-11-05T18:25:43.832Z,10.73
2018-11-05T18:28:23.245Z,13.37
2018-11-05T18:34:03.208Z,11.13
2018-11-05T18:39:25.630Z,10.00
2018-11-05T18:48:08.322Z,6.83
2018-11-05T19:05:11.885Z,15.70
2018-11-05T19:10:31.200Z,15.00
2018-11-05T19:15:49.032Z,20.00
2018-11-05T19:18:25.173Z,18.93
2018-11-05T19:21:06.306Z,19.87
2018-11-05T19:23:36.106Z,18.90
2018-11-05T19:31:41.862Z,15.60
2018-11-05T19:34:11.558Z,17.43
2018-11-05T19:36:42.138Z,19.17
2018-11-05T19:47:27.993Z,21.13
2018-11-05T19:55:16.875Z,22.33
2018-11-05T20:00:32.724Z,14.37
2018-11-05T20:03:01.986Z,23.00
2018-11-05T20:05:32.580Z,22.10
2018-11-05T20:08:02.034Z,14.83
2018-11-05T20:10:32.222Z,12.57
2018-11-05T20:16:16.255Z,14.70
2018-11-05T20:18:45.846Z,21.50
2018-11-05T20:31:49.799Z,10.50
2018-11-05T20:37:35.400Z,11.50
2018-11-05T20:40:07.767Z,8.60
2018-11-05T20:42:36.708Z,9.13
2018-11-05T20:45:12.997Z,8.07
2018-11-05T20:53:11.068Z,6.90
2018-11-05T20:55:44.130Z,7.13
2018-11-05T20:58:13.954Z,5.57
2018-11-05T21:03:28.572Z,6.53
2018-11-05T21:08:39.643Z,9.10
2018-11-05T21:11:08.425Z,6.43
2018-11-05T21:13:37.367Z,5.50
2018-11-05T21:16:08.291Z,4.97
2018-11-05T21:18:37.281Z,3.60
2018-11-05T21:21:08.239Z,4.93
2018-11-05T21:23:38.709Z,3.93
2018-11-05T21:26:08.191Z,4.90
2018-11-05T21:39:30.617Z,4.70
2018-11-05T21:41:59.222Z,4.53
2018-11-05T21:44:30.738Z,3.13
2018-11-05T21:47:00.489Z,3.50
2018-11-05T21:49:28.995Z,3.87
2018-11-05T21:51:57.362Z,4.60
2018-11-05T21:54:29.334Z,3.30
2018-11-05T21:57:08.074Z,3.60
2018-11-05T21:59:39.935Z,2.90
2018-11-05T22:02:15.129Z,3.20
2018-11-05T22:04:46.477Z,2.80
2018-11-05T22:07:18.601Z,2.70
2018-11-05T22:09:48.985Z,2.77
2018-11-05T22:15:00.522Z,2.80
2018-11-05T22:17:28.973Z,2.67
2018-11-05T22:19:57.667Z,2.33
2018-11-05T22:22:26.224Z,2.83
2018-11-05T22:24:54.862Z,2.70
2018-11-05T22:27:23.355Z,2.73
2018-11-05T22:32:32.628Z,2.47
2018-11-05T22:35:02.507Z,2.80
2018-11-05T22:37:30.870Z,2.47
2018-11-05T22:39:59.611Z,2.10
2018-11-05T22:42:27.927Z,2.77
2018-11-05T22:44:56.429Z,3.20
2018-11-05T22:47:24.820Z,2.90
2018-11-05T22:49:53.062Z,2.80
2018-11-05T22:52:21.614Z,1.87
2018-11-05T22:54:49.929Z,2.33
2018-11-05T22:57:18.120Z,2.77
2018-11-05T22:59:47.050Z,1.90
2018-11-05T23:02:16.972Z,2.50
2018-11-05T23:04:45.090Z,2.80
2018-11-05T23:07:13.421Z,2.47
2018-11-05T23:09:41.804Z,2.67
2018-11-05T23:12:10.259Z,2.10
2018-11-05T23:14:38.852Z,2.40
2018-11-05T23:17:07.443Z,2.27
2018-11-05T23:19:35.722Z,2.70
2018-11-05T23:22:04.541Z,2.50
2018-11-05T23:24:32.782Z,2.80
2018-11-05T23:27:01.242Z,2.10
2018-11-05T23:29:29.588Z,2.33
2018-11-05T23:31:57.766Z,2.37
2018-11-05T23:34:26.255Z,2.30
2018-11-05T23:36:55.834Z,3.30
2018-11-05T23:39:23.954Z,2.90
2018-11-05T23:41:52.348Z,2.60
2018-11-05T23:44:20.422Z,2.50
2018-11-05T23:46:48.596Z,2.37
2018-11-05T23:49:16.782Z,2.07
2018-11-05T23:51:44.969Z,2.20
2018-11-05T23:54:13.208Z,2.40
2018-11-05T23:56:41.486Z,1.90
2018-11-05T23:59:09.765Z,1.80
